Time;durP1;ratioP1;P1;durP2;ratioP2;P2;SDS_P1;SDS_P2;PMS_P1;PMS_P2;Temp;Humidity;BMP_temperature;BMP_pressure;BME280_temperature;BME280_humidity;BME280_pressure;Samples;Min_cycle;Max_cycle;Signal;HPM_P1;HPM_P2
2024/03/17 00:01:05;;;;;;;0.30;0.30;;;5.80;99.90;;;;;;4454693;32;20476;-64
2024/03/17 00:03:31;;;;;;;0.30;0.30;;;5.70;99.90;;;;;;4454369;32;20081;-65
2024/03/17 00:05:58;;;;;;;0.30;0.30;;;5.60;99.90;;;;;;4444550;32;20123;-64
2024/03/17 00:08:24;;;;;;;0.55;0.55;;;5.60;99.90;;;;;;4451660;32;20315;-64
2024/03/17 00:10:52;;;;;;;5.95;1.10;;;5.50;99.90;;;;;;4453205;32;20061;-64
2024/03/17 00:13:18;;;;;;;0.40;0.40;;;5.50;99.90;;;;;;4454820;32;20093;-65
2024/03/17 00:15:43;;;;;;;0.98;0.70;;;5.50;99.90;;;;;;4454036;32;20539;-65
2024/03/17 00:18:10;;;;;;;0.80;0.80;;;5.50;99.90;;;;;;4454562;32;20100;-64
2024/03/17 00:20:36;;;;;;;2.85;1.12;;;5.50;99.90;;;;;;4452284;32;20061;-65
2024/03/17 00:23:02;;;;;;;3.40;1.45;;;5.50;99.90;;;;;;4454613;32;20582;-65
2024/03/17 00:25:27;;;;;;;1.25;1.00;;;5.50;99.90;;;;;;4452804;32;20171;-65
2024/03/17 00:27:56;;;;;;;1.55;1.00;;;5.60;99.90;;;;;;4452921;32;20080;-64
2024/03/17 00:30:22;;;;;;;1.85;0.85;;;5.60;99.90;;;;;;4452618;32;20181;-64
2024/03/17 00:32:47;;;;;;;0.62;0.62;;;5.50;99.90;;;;;;4453328;32;20085;-65
2024/03/17 00:35:20;;;;;;;0.35;0.35;;;5.50;99.90;;;;;;4453104;32;20131;-65
2024/03/17 00:37:46;;;;;;;10.98;0.98;;;5.60;99.90;;;;;;4451877;32;20081;-64
2024/03/17 00:40:12;;;;;;;0.90;0.77;;;5.50;99.90;;;;;;4453274;32;20105;-65
2024/03/17 00:42:37;;;;;;;5.72;1.65;;;5.40;99.90;;;;;;4451872;32;20080;-65
2024/03/17 00:45:05;;;;;;;7.72;2.30;;;5.50;99.90;;;;;;4454457;32;20151;-65
2024/03/17 00:47:31;;;;;;;0.40;0.40;;;5.50;99.90;;;;;;4452295;32;20057;-65
2024/03/17 00:49:56;;;;;;;1.25;0.70;;;5.50;99.90;;;;;;4453827;32;20472;-65
2024/03/17 00:52:21;;;;;;;0.45;0.45;;;5.50;99.90;;;;;;4451841;32;20137;-65
2024/03/17 00:54:47;;;;;;;2.72;1.30;;;5.50;99.90;;;;;;4452466;32;20072;-64
2024/03/17 00:57:14;;;;;;;0.30;0.30;;;5.40;99.90;;;;;;4451915;32;20077;-66
2024/03/17 00:59:39;;;;;;;10.73;2.83;;;5.40;99.90;;;;;;4444291;32;20073;-65
2024/03/17 01:02:05;;;;;;;0.20;0.20;;;5.50;99.90;;;;;;4453397;32;20539;-65
2024/03/17 01:04:33;;;;;;;18.08;4.43;;;5.40;99.90;;;;;;4453811;32;20069;-65
2024/03/17 01:06:59;;;;;;;0.52;0.52;;;5.30;99.90;;;;;;4452210;32;20092;-64
2024/03/17 01:09:25;;;;;;;8.60;1.85;;;5.20;99.90;;;;;;4453082;32;20073;-65
2024/03/17 01:11:50;;;;;;;5.05;0.98;;;5.20;99.90;;;;;;4450961;32;20530;-64
2024/03/17 01:14:16;;;;;;;2.75;0.95;;;5.20;99.90;;;;;;4454391;32;20483;-65
2024/03/17 01:16:41;;;;;;;0.62;0.62;;;5.10;99.90;;;;;;4451589;32;20084;-65
2024/03/17 01:19:07;;;;;;;0.30;0.30;;;5.10;99.90;;;;;;4454103;32;20448;-64
2024/03/17 01:21:32;;;;;;;4.68;1.90;;;5.20;99.90;;;;;;4450718;32;20080;-64
2024/03/17 01:23:57;;;;;;;0.52;0.52;;;5.10;99.90;;;;;;4452539;32;20612;-65
2024/03/17 01:26:24;;;;;;;0.40;0.40;;;5.20;99.90;;;;;;4452664;32;20084;-65
2024/03/17 01:28:49;;;;;;;6.37;1.62;;;5.10;99.90;;;;;;4453057;32;20191;-64
2024/03/17 01:31:15;;;;;;;1.95;1.60;;;5.10;99.90;;;;;;4453375;32;20081;-64
2024/03/17 01:33:40;;;;;;;2.03;1.08;;;5.10;99.90;;;;;;4454285;32;20076;-64
2024/03/17 01:36:06;;;;;;;0.32;0.32;;;5.10;99.90;;;;;;4454365;32;20088;-64
2024/03/17 01:38:32;;;;;;;6.93;1.65;;;5.10;99.90;;;;;;4452281;32;20061;-63
2024/03/17 01:40:59;;;;;;;0.40;0.40;;;5.10;99.90;;;;;;4453749;32;21315;-62
2024/03/17 01:43:24;;;;;;;0.93;0.90;;;5.00;99.90;;;;;;4453840;32;21167;-62
2024/03/17 01:45:50;;;;;;;2.47;1.85;;;5.00;99.90;;;;;;4452954;32;20072;-62
2024/03/17 01:48:19;;;;;;;0.43;0.43;;;5.00;99.90;;;;;;4453340;32;20569;-64
2024/03/17 01:50:45;;;;;;;0.30;0.30;;;4.90;99.90;;;;;;4452383;32;20080;-64
2024/03/17 01:53:13;;;;;;;1.70;0.68;;;5.10;99.90;;;;;;4453764;32;20141;-64
2024/03/17 01:55:42;;;;;;;0.62;0.62;;;5.10;99.90;;;;;;4453714;32;20411;-64
2024/03/17 01:58:07;;;;;;;3.53;2.08;;;5.00;99.90;;;;;;4453394;32;20060;-64
2024/03/17 02:00:36;;;;;;;6.18;1.17;;;5.00;99.90;;;;;;4453007;32;20541;-64
2024/03/17 02:03:03;;;;;;;1.08;1.05;;;5.00;99.90;;;;;;4454191;32;20065;-64
2024/03/17 02:05:29;;;;;;;0.70;0.70;;;4.90;99.90;;;;;;4454311;32;20069;-64
2024/03/17 02:07:54;;;;;;;0.35;0.35;;;4.80;99.90;;;;;;4454409;32;20093;-64
2024/03/17 02:10:21;;;;;;;2.60;0.60;;;4.70;99.90;;;;;;4454130;32;20570;-66
2024/03/17 02:12:47;;;;;;;0.40;0.40;;;4.70;99.90;;;;;;4452803;32;20088;-63
2024/03/17 02:15:14;;;;;;;0.40;0.40;;;4.70;99.90;;;;;;4452649;32;20458;-64
2024/03/17 02:17:39;;;;;;;7.78;3.55;;;4.60;99.90;;;;;;4456400;32;20072;-64
2024/03/17 02:20:07;;;;;;;0.85;0.82;;;4.60;99.90;;;;;;4456084;32;20090;-64
2024/03/17 02:22:34;;;;;;;0.30;0.30;;;4.50;99.90;;;;;;4455206;32;20073;-63
2024/03/17 02:25:00;;;;;;;0.40;0.40;;;4.50;99.90;;;;;;4455571;32;20080;-64
2024/03/17 02:27:26;;;;;;;0.68;0.68;;;4.60;99.90;;;;;;4452860;32;20499;-64
2024/03/17 02:29:51;;;;;;;0.30;0.30;;;4.60;99.90;;;;;;4453699;32;20069;-63
2024/03/17 02:32:17;;;;;;;0.47;0.47;;;4.60;99.90;;;;;;4454659;32;20116;-63
2024/03/17 02:34:44;;;;;;;0.37;0.37;;;4.60;99.90;;;;;;4455746;32;20132;-64
2024/03/17 02:37:10;;;;;;;0.30;0.30;;;4.60;99.90;;;;;;4453488;32;22050;-66
2024/03/17 02:39:36;;;;;;;0.45;0.45;;;4.50;99.90;;;;;;4449294;32;20089;-67
2024/03/17 02:42:04;;;;;;;0.30;0.30;;;4.50;99.90;;;;;;4451905;32;20111;-67
2024/03/17 02:44:30;;;;;;;0.30;0.30;;;4.60;99.90;;;;;;4452722;32;20080;-67
2024/03/17 02:46:57;;;;;;;0.40;0.40;;;4.50;99.90;;;;;;4452557;32;20057;-66
2024/03/17 02:49:23;;;;;;;0.40;0.40;;;4.40;99.90;;;;;;4455168;32;20064;-67
2024/03/17 02:51:49;;;;;;;0.65;0.65;;;4.50;99.90;;;;;;4454566;32;20134;-66
2024/03/17 02:54:14;;;;;;;2.55;1.00;;;4.50;99.90;;;;;;4453077;32;20511;-67
2024/03/17 02:56:40;;;;;;;0.30;0.30;;;4.40;99.90;;;;;;4453539;32;20073;-67
2024/03/17 02:59:07;;;;;;;0.88;0.88;;;4.30;99.90;;;;;;4453813;32;20521;-64
2024/03/17 03:01:32;;;;;;;12.68;2.22;;;4.40;99.90;;;;;;4454551;32;20084;-64
2024/03/17 03:03:57;;;;;;;0.52;0.52;;;4.30;99.90;;;;;;4456704;32;20085;-64
2024/03/17 03:06:24;;;;;;;0.30;0.30;;;4.30;99.90;;;;;;4455363;32;20082;-64
2024/03/17 03:08:50;;;;;;;0.30;0.30;;;4.40;99.90;;;;;;4455699;32;20068;-64
2024/03/17 03:11:17;;;;;;;22.58;1.60;;;4.40;99.90;;;;;;4453756;32;20434;-65
2024/03/17 03:13:43;;;;;;;0.30;0.30;;;4.40;99.90;;;;;;4455481;32;20093;-64
2024/03/17 03:16:11;;;;;;;0.30;0.30;;;4.40;99.90;;;;;;4455404;32;20073;-64
2024/03/17 03:18:39;;;;;;;0.73;0.70;;;4.40;99.90;;;;;;4456669;32;20114;-64
2024/03/17 03:21:05;;;;;;;0.57;0.55;;;4.40;99.90;;;;;;4455891;32;20081;-64
2024/03/17 03:23:31;;;;;;;1.37;1.27;;;4.30;99.90;;;;;;4454943;32;20524;-64
2024/03/17 03:25:58;;;;;;;1.45;1.25;;;4.40;99.90;;;;;;4455912;32;20073;-64
2024/03/17 03:28:24;;;;;;;6.03;1.42;;;4.40;99.90;;;;;;4455412;32;20089;-64
2024/03/17 03:30:50;;;;;;;1.40;1.30;;;4.30;99.90;;;;;;4453483;32;20060;-64
2024/03/17 03:33:17;;;;;;;3.00;1.70;;;4.30;99.90;;;;;;4453967;32;20068;-64
2024/03/17 03:35:43;;;;;;;1.35;1.12;;;4.30;99.90;;;;;;4456144;32;20064;-64
2024/03/17 03:38:08;;;;;;;0.52;0.52;;;4.30;99.90;;;;;;4454012;32;20080;-64
2024/03/17 03:40:34;;;;;;;0.45;0.45;;;4.30;99.90;;;;;;4455037;32;20075;-64
2024/03/17 03:42:59;;;;;;;5.75;2.25;;;4.30;99.90;;;;;;4454318;32;20080;-64
2024/03/17 03:45:25;;;;;;;0.40;0.40;;;4.20;99.90;;;;;;4454921;32;20150;-64
2024/03/17 03:47:51;;;;;;;2.50;1.58;;;4.20;99.90;;;;;;4455607;32;20092;-64
2024/03/17 03:50:21;;;;;;;1.60;0.93;;;4.30;99.90;;;;;;4455530;32;20359;-64
2024/03/17 03:52:47;;;;;;;0.32;0.32;;;4.20;99.90;;;;;;4455053;32;20105;-64
2024/03/17 03:55:15;;;;;;;0.30;0.30;;;4.20;99.90;;;;;;4454512;32;20413;-64
2024/03/17 03:57:42;;;;;;;0.40;0.40;;;4.20;99.90;;;;;;4454180;32;20108;-64
2024/03/17 04:02:36;;;;;;;2.22;1.17;;;4.10;99.90;;;;;;4452572;32;20454;-64
2024/03/17 04:05:03;;;;;;;0.88;0.88;;;4.10;99.90;;;;;;4453611;32;20060;-64
2024/03/17 04:07:29;;;;;;;2.10;0.88;;;4.10;99.90;;;;;;4454461;32;20406;-66
2024/03/17 04:09:54;;;;;;;12.43;1.52;;;4.00;99.90;;;;;;4451989;32;20085;-66
2024/03/17 04:12:20;;;;;;;0.30;0.30;;;4.10;99.90;;;;;;4451593;32;20132;-66
2024/03/17 04:14:46;;;;;;;0.57;0.57;;;4.00;99.90;;;;;;4451540;32;20061;-66
2024/03/17 04:17:12;;;;;;;0.43;0.43;;;4.00;99.90;;;;;;4453540;32;20064;-67
2024/03/17 04:19:38;;;;;;;0.35;0.35;;;4.00;99.90;;;;;;4453831;32;20138;-67
2024/03/17 04:22:03;;;;;;;0.30;0.30;;;4.00;99.90;;;;;;4453445;32;20527;-67
2024/03/17 04:24:29;;;;;;;0.75;0.75;;;4.00;99.90;;;;;;4454631;32;20060;-66
2024/03/17 04:26:54;;;;;;;2.53;1.70;;;4.10;99.90;;;;;;4452270;32;20068;-66
2024/03/17 04:29:20;;;;;;;0.20;0.20;;;4.00;99.90;;;;;;4452110;32;20424;-67
2024/03/17 04:31:48;;;;;;;0.30;0.30;;;4.00;99.90;;;;;;4452666;32;20135;-67
2024/03/17 04:34:14;;;;;;;0.47;0.47;;;4.00;99.90;;;;;;4452954;32;20282;-66
2024/03/17 04:36:40;;;;;;;14.95;0.65;;;4.00;99.90;;;;;;4453324;32;20060;-66
2024/03/17 04:39:08;;;;;;;0.30;0.30;;;4.00;99.90;;;;;;4451261;32;20101;-66
2024/03/17 04:41:33;;;;;;;0.30;0.30;;;4.00;99.90;;;;;;4453480;32;20497;-66
2024/03/17 04:44:00;;;;;;;1.70;1.27;;;3.90;99.90;;;;;;4452478;32;20089;-66
2024/03/17 04:46:26;;;;;;;0.40;0.40;;;3.90;99.90;;;;;;4454211;32;20085;-66
2024/03/17 04:48:52;;;;;;;0.40;0.40;;;3.80;99.90;;;;;;4453956;32;20418;-67
2024/03/17 04:51:17;;;;;;;10.85;0.90;;;3.80;99.90;;;;;;4453900;32;20607;-66
2024/03/17 04:53:43;;;;;;;2.20;1.75;;;3.80;99.90;;;;;;4454088;32;20513;-66
2024/03/17 04:56:08;;;;;;;0.32;0.32;;;3.70;99.90;;;;;;4452629;32;20500;-66
2024/03/17 04:58:34;;;;;;;0.30;0.30;;;3.80;99.90;;;;;;4452931;32;20065;-64
2024/03/17 05:01:06;;;;;;;1.58;0.98;;;3.80;99.90;;;;;;4454879;32;20145;-64
2024/03/17 05:03:32;;;;;;;0.55;0.55;;;3.80;99.90;;;;;;4454939;32;20116;-63
2024/03/17 05:06:01;;;;;;;0.30;0.30;;;3.80;99.90;;;;;;4453287;32;20472;-63
2024/03/17 05:08:28;;;;;;;0.70;0.70;;;3.80;99.90;;;;;;4453806;32;20093;-63
2024/03/17 05:11:06;;;;;;;0.40;0.40;;;3.70;99.90;;;;;;4453938;32;20084;-63
2024/03/17 05:13:32;;;;;;;1.08;0.82;;;3.80;99.90;;;;;;4455619;32;21264;-66
2024/03/17 05:16:00;;;;;;;1.05;0.95;;;3.80;99.90;;;;;;4454054;32;20587;-64
2024/03/17 05:18:26;;;;;;;0.30;0.30;;;3.80;99.90;;;;;;4455098;32;20087;-64
2024/03/17 05:21:07;;;;;;;0.30;0.30;;;3.80;99.90;;;;;;4452707;32;20563;-65
2024/03/17 05:23:34;;;;;;;2.08;1.87;;;3.70;99.90;;;;;;4453548;32;20084;-65
2024/03/17 05:26:00;;;;;;;0.30;0.30;;;3.70;99.90;;;;;;4451311;32;20065;-64
2024/03/17 05:28:27;;;;;;;1.23;0.95;;;3.70;99.90;;;;;;4451407;32;20085;-65
2024/03/17 05:30:53;;;;;;;0.75;0.75;;;3.70;99.90;;;;;;4452216;32;20503;-64
2024/03/17 05:33:21;;;;;;;2.42;1.42;;;3.60;99.90;;;;;;4450316;32;20116;-64
2024/03/17 05:36:03;;;;;;;0.73;0.73;;;3.60;99.90;;;;;;4451226;32;20060;-65
2024/03/17 05:38:30;;;;;;;0.30;0.30;;;3.70;99.90;;;;;;4449701;32;20085;-65
2024/03/17 05:40:59;;;;;;;0.50;0.43;;;3.70;99.90;;;;;;4438055;32;20184;-65
2024/03/17 05:43:26;;;;;;;0.40;0.40;;;3.70;99.90;;;;;;4452776;32;20072;-65
2024/03/17 05:45:52;;;;;;;0.30;0.30;;;3.70;99.90;;;;;;4451616;32;20060;-65
2024/03/17 05:48:18;;;;;;;1.67;0.93;;;3.80;99.90;;;;;;4445291;32;20072;-67
2024/03/17 05:50:44;;;;;;;0.30;0.30;;;3.70;99.90;;;;;;4452906;32;20138;-67
2024/03/17 05:53:09;;;;;;;0.32;0.32;;;3.70;99.90;;;;;;4454709;32;20073;-67
2024/03/17 05:55:36;;;;;;;0.40;0.40;;;3.60;99.90;;;;;;4455453;32;20092;-67
2024/03/17 05:58:02;;;;;;;0.35;0.35;;;3.60;99.90;;;;;;4454532;32;20178;-67
2024/03/17 06:00:28;;;;;;;0.30;0.30;;;3.60;99.90;;;;;;4452760;32;20084;-67
2024/03/17 06:02:53;;;;;;;7.32;1.15;;;3.70;99.90;;;;;;4454661;32;20181;-67
2024/03/17 06:05:19;;;;;;;0.65;0.60;;;3.80;99.90;;;;;;4454784;32;20088;-67
2024/03/17 06:07:44;;;;;;;0.30;0.30;;;3.70;99.90;;;;;;4455398;32;20056;-67
2024/03/17 06:10:10;;;;;;;0.70;0.70;;;3.70;99.90;;;;;;4453826;32;20595;-67
2024/03/17 06:12:35;;;;;;;0.30;0.30;;;3.80;99.90;;;;;;4453644;32;20068;-66
2024/03/17 06:15:02;;;;;;;0.40;0.40;;;3.80;99.90;;;;;;4454568;32;20491;-67
2024/03/17 06:17:28;;;;;;;32.17;1.40;;;3.90;99.90;;;;;;4454858;32;20061;-67
2024/03/17 06:19:53;;;;;;;0.35;0.35;;;3.90;99.90;;;;;;4454493;32;20549;-67
2024/03/17 06:22:19;;;;;;;0.30;0.30;;;4.00;99.90;;;;;;4455508;32;20073;-67
2024/03/17 06:24:44;;;;;;;0.98;0.57;;;4.10;99.90;;;;;;4454965;32;20093;-65
2024/03/17 06:27:10;;;;;;;0.30;0.30;;;4.10;99.90;;;;;;4449840;32;20081;-63
2024/03/17 06:29:36;;;;;;;0.60;0.60;;;4.10;99.90;;;;;;4453145;32;20064;-63
2024/03/17 06:32:02;;;;;;;27.95;0.95;;;4.10;99.90;;;;;;4454323;32;20792;-63
2024/03/17 06:34:27;;;;;;;4.97;2.45;;;4.30;99.90;;;;;;4454201;32;20068;-64
2024/03/17 06:36:53;;;;;;;0.65;0.65;;;4.40;99.90;;;;;;4454497;32;20174;-63
2024/03/17 06:39:21;;;;;;;31.55;0.85;;;4.40;99.90;;;;;;4453620;32;20064;-60
2024/03/17 06:41:46;;;;;;;0.40;0.40;;;4.50;99.90;;;;;;4455438;32;20084;-60
2024/03/17 06:44:12;;;;;;;0.43;0.43;;;4.50;99.90;;;;;;4453853;32;20552;-61
2024/03/17 06:46:38;;;;;;;0.28;0.28;;;4.60;99.90;;;;;;4454835;32;20080;-63
2024/03/17 06:49:04;;;;;;;0.30;0.30;;;4.70;99.90;;;;;;4455241;32;20057;-63
2024/03/17 06:51:29;;;;;;;0.30;0.30;;;4.80;99.90;;;;;;4452895;32;20097;-65
2024/03/17 06:53:55;;;;;;;0.30;0.30;;;4.80;99.90;;;;;;4453892;32;20089;-62
2024/03/17 06:56:20;;;;;;;0.37;0.37;;;4.80;99.90;;;;;;4454353;32;20517;-63
2024/03/17 06:58:45;;;;;;;1.20;1.10;;;4.90;99.90;;;;;;4454376;32;20064;-63
2024/03/17 07:01:11;;;;;;;7.87;2.62;;;4.90;99.90;;;;;;4455402;32;20171;-64
2024/03/17 07:03:38;;;;;;;1.30;1.12;;;4.90;99.90;;;;;;4455238;32;20520;-63
2024/03/17 07:06:04;;;;;;;0.20;0.20;;;4.90;99.90;;;;;;4455140;32;20077;-63
2024/03/17 07:08:30;;;;;;;3.65;0.70;;;5.00;99.90;;;;;;4455456;32;20619;-64
2024/03/17 07:10:58;;;;;;;0.32;0.32;;;4.90;99.90;;;;;;4454087;32;20123;-63
2024/03/17 07:13:23;;;;;;;0.80;0.80;;;4.80;99.90;;;;;;4455409;32;20496;-64
2024/03/17 07:15:49;;;;;;;0.70;0.70;;;4.90;99.90;;;;;;4455027;32;20080;-61
2024/03/17 07:18:16;;;;;;;4.32;1.70;;;4.80;99.90;;;;;;4455390;32;20517;-61
2024/03/17 07:20:42;;;;;;;1.40;0.93;;;4.80;99.90;;;;;;4453969;32;20080;-63
2024/03/17 07:23:07;;;;;;;3.65;1.12;;;5.00;99.90;;;;;;4456608;32;20073;-61
2024/03/17 07:25:34;;;;;;;1.23;1.05;;;5.00;99.90;;;;;;4452749;32;20064;-64
2024/03/17 07:27:59;;;;;;;0.37;0.37;;;5.10;99.90;;;;;;4455678;32;20134;-63
2024/03/17 07:30:25;;;;;;;0.45;0.45;;;5.20;99.90;;;;;;4454371;32;20076;-62
2024/03/17 07:32:51;;;;;;;0.37;0.37;;;5.30;99.90;;;;;;4456352;32;20065;-60
2024/03/17 07:35:16;;;;;;;0.50;0.50;;;5.40;99.90;;;;;;4454662;32;20499;-61
2024/03/17 07:37:42;;;;;;;7.43;1.65;;;5.40;99.90;;;;;;4455281;32;20073;-64
2024/03/17 07:40:10;;;;;;;0.40;0.40;;;5.50;99.90;;;;;;4454930;32;20104;-62
2024/03/17 07:42:36;;;;;;;0.50;0.50;;;5.50;99.90;;;;;;4454555;32;20155;-64
2024/03/17 07:45:01;;;;;;;0.93;0.88;;;5.50;99.90;;;;;;4453105;32;20163;-62
2024/03/17 07:47:35;;;;;;;0.80;0.80;;;5.60;99.90;;;;;;4454321;32;20212;-62
2024/03/17 07:50:05;;;;;;;0.70;0.70;;;5.70;99.90;;;;;;4455450;32;20068;-62
2024/03/17 07:52:31;;;;;;;13.97;1.70;;;5.70;99.90;;;;;;4454589;32;20065;-64
2024/03/17 07:54:57;;;;;;;0.70;0.70;;;5.80;99.90;;;;;;4453626;32;20512;-65
2024/03/17 07:57:23;;;;;;;1.00;0.88;;;5.90;99.90;;;;;;4454349;32;20060;-62
2024/03/17 07:59:51;;;;;;;4.37;1.20;;;6.00;99.90;;;;;;4453907;32;20076;-63
2024/03/17 08:02:17;;;;;;;0.40;0.40;;;6.00;99.90;;;;;;4455150;32;20138;-62
2024/03/17 08:04:44;;;;;;;1.15;0.82;;;6.10;99.90;;;;;;4453997;32;20177;-63
2024/03/17 08:07:10;;;;;;;0.40;0.40;;;6.20;99.90;;;;;;4454521;32;20084;-61
2024/03/17 08:09:36;;;;;;;4.95;2.15;;;6.20;99.90;;;;;;4453969;32;20122;-61
2024/03/17 08:12:04;;;;;;;1.85;0.80;;;6.30;99.90;;;;;;4453932;32;20060;-63
2024/03/17 08:14:30;;;;;;;0.47;0.40;;;6.30;99.90;;;;;;4453334;32;20444;-62
2024/03/17 08:16:55;;;;;;;3.75;1.48;;;6.30;99.90;;;;;;4446165;32;20060;-62
2024/03/17 08:19:21;;;;;;;0.43;0.43;;;6.40;99.90;;;;;;4454321;32;20080;-63
2024/03/17 08:21:46;;;;;;;0.60;0.60;;;6.40;99.90;;;;;;4455474;32;20061;-63
2024/03/17 08:24:12;;;;;;;1.65;1.00;;;6.40;99.90;;;;;;4454370;32;20092;-62
2024/03/17 08:26:40;;;;;;;0.30;0.30;;;6.50;99.90;;;;;;4453012;32;20060;-63
2024/03/17 08:29:06;;;;;;;0.40;0.40;;;6.70;99.90;;;;;;4454310;32;20061;-61
2024/03/17 08:31:32;;;;;;;1.95;0.95;;;6.80;99.90;;;;;;4452635;32;20734;-61
2024/03/17 08:33:57;;;;;;;4.82;1.37;;;7.00;99.90;;;;;;4454021;32;20120;-62
2024/03/17 08:36:24;;;;;;;0.55;0.55;;;7.20;99.90;;;;;;4453858;32;20139;-61
2024/03/17 08:38:50;;;;;;;0.32;0.32;;;7.40;99.90;;;;;;4453355;32;20084;-63
2024/03/17 08:41:16;;;;;;;0.40;0.40;;;7.50;99.90;;;;;;4452463;32;20064;-62
2024/03/17 08:43:43;;;;;;;0.30;0.30;;;7.50;99.90;;;;;;4452209;32;20072;-63
2024/03/17 08:46:10;;;;;;;0.20;0.20;;;7.40;99.90;;;;;;4452643;32;20138;-61
2024/03/17 08:48:37;;;;;;;0.50;0.50;;;7.30;99.90;;;;;;4455396;32;20145;-64
2024/03/17 08:51:04;;;;;;;0.30;0.30;;;7.40;99.90;;;;;;4453496;32;20528;-64
2024/03/17 08:53:30;;;;;;;0.20;0.20;;;7.40;99.90;;;;;;4453078;32;20129;-64
2024/03/17 08:55:56;;;;;;;0.43;0.43;;;7.30;99.90;;;;;;4444191;32;20072;-64
2024/03/17 08:58:22;;;;;;;0.47;0.47;;;7.40;99.90;;;;;;4452376;32;20135;-64
2024/03/17 09:00:48;;;;;;;2.65;1.58;;;7.40;99.90;;;;;;4453567;32;20103;-64
2024/03/17 09:03:14;;;;;;;0.65;0.65;;;7.40;99.90;;;;;;4451715;32;20119;-64
2024/03/17 09:05:41;;;;;;;0.45;0.45;;;7.30;99.90;;;;;;4452428;32;20073;-64
2024/03/17 09:08:08;;;;;;;0.40;0.40;;;7.40;99.90;;;;;;4455194;32;20080;-65
2024/03/17 09:10:40;;;;;;;0.98;0.90;;;7.50;99.90;;;;;;4446454;32;20122;-65
2024/03/17 09:13:06;;;;;;;0.35;0.35;;;7.70;99.90;;;;;;4444091;32;20132;-65
2024/03/17 09:15:32;;;;;;;0.47;0.47;;;7.80;99.90;;;;;;4453947;32;20118;-65
2024/03/17 09:17:57;;;;;;;0.52;0.52;;;7.90;99.90;;;;;;4453314;32;20088;-65
2024/03/17 09:20:22;;;;;;;0.73;0.55;;;7.90;99.90;;;;;;4453330;32;20084;-65
2024/03/17 09:22:48;;;;;;;0.30;0.30;;;7.90;99.90;;;;;;4453498;32;20065;-65
2024/03/17 09:25:14;;;;;;;2.37;1.65;;;7.90;99.90;;;;;;4450648;32;20460;-65
2024/03/17 09:27:40;;;;;;;0.20;0.20;;;7.90;99.90;;;;;;4452839;32;20080;-64
2024/03/17 09:30:09;;;;;;;0.25;0.25;;;8.00;99.90;;;;;;4453827;32;20430;-64
2024/03/17 09:32:41;;;;;;;0.30;0.30;;;8.10;99.90;;;;;;4452403;32;20160;-64
2024/03/17 09:35:07;;;;;;;0.30;0.30;;;8.20;99.90;;;;;;4454814;32;20080;-64
2024/03/17 09:37:32;;;;;;;0.45;0.45;;;8.20;99.90;;;;;;4446581;32;20802;-64
2024/03/17 09:40:00;;;;;;;0.20;0.20;;;8.40;99.90;;;;;;4454352;32;21100;-64
2024/03/17 09:42:27;;;;;;;0.30;0.30;;;8.70;99.90;;;;;;4455127;32;20434;-64
2024/03/17 09:44:56;;;;;;;0.28;0.28;;;8.90;99.90;;;;;;4440481;32;20061;-65
2024/03/17 09:47:23;;;;;;;0.35;0.35;;;9.00;99.90;;;;;;4454814;32;20076;-63
2024/03/17 09:49:50;;;;;;;0.40;0.40;;;9.00;99.90;;;;;;4455905;32;20077;-64
2024/03/17 09:52:22;;;;;;;18.62;1.08;;;8.90;99.90;;;;;;4445614;32;20060;-63
2024/03/17 09:54:53;;;;;;;0.30;0.30;;;9.10;99.90;;;;;;4456020;32;20479;-63
2024/03/17 09:57:20;;;;;;;13.25;0.52;;;9.30;99.90;;;;;;4454450;32;20084;-63
2024/03/17 09:59:51;;;;;;;0.40;0.40;;;9.40;99.90;;;;;;4454108;32;20073;-66
2024/03/17 10:02:18;;;;;;;0.20;0.20;;;9.40;99.90;;;;;;4452808;32;20106;-66
2024/03/17 10:04:43;;;;;;;0.45;0.45;;;9.30;99.90;;;;;;4454415;32;20079;-66
2024/03/17 10:07:09;;;;;;;5.43;1.10;;;9.40;99.90;;;;;;4452927;32;20119;-68
2024/03/17 10:09:36;;;;;;;0.30;0.30;;;9.70;99.90;;;;;;4452415;32;20508;-66
2024/03/17 10:12:01;;;;;;;0.30;0.30;;;9.90;99.90;;;;;;4451524;32;20097;-66
2024/03/17 10:14:27;;;;;;;0.30;0.30;;;9.90;99.90;;;;;;4453997;32;20088;-66
2024/03/17 10:16:53;;;;;;;0.30;0.30;;;9.90;99.90;;;;;;4452755;32;20084;-67
2024/03/17 10:19:23;;;;;;;0.40;0.40;;;9.80;99.90;;;;;;4455383;32;20080;-67
2024/03/17 10:21:49;;;;;;;0.30;0.30;;;9.70;99.90;;;;;;4451368;32;20655;-67
2024/03/17 10:24:24;;;;;;;0.80;0.77;;;9.70;99.90;;;;;;4453154;32;20065;-68
2024/03/17 10:26:53;;;;;;;0.30;0.30;;;9.60;99.90;;;;;;4452047;32;20614;-66
2024/03/17 10:29:35;;;;;;;1.30;0.50;;;9.40;99.90;;;;;;4449966;32;20147;-67
2024/03/17 10:32:03;;;;;;;0.30;0.30;;;9.40;99.90;;;;;;4440675;32;20131;-67
2024/03/17 10:34:38;;;;;;;0.52;0.52;;;9.40;99.90;;;;;;4451170;32;20524;-67
2024/03/17 10:37:10;;;;;;;1.10;0.68;;;9.50;99.90;;;;;;4452589;32;20068;-67
2024/03/17 10:39:36;;;;;;;2.67;1.02;;;9.40;99.90;;;;;;4454997;32;21206;-67
2024/03/17 10:42:04;;;;;;;0.30;0.30;;;9.60;99.90;;;;;;4453650;32;20748;-68
2024/03/17 10:44:33;;;;;;;0.30;0.30;;;9.70;99.90;;;;;;4453588;32;20582;-66
2024/03/17 10:47:00;;;;;;;0.35;0.32;;;9.90;99.90;;;;;;4454151;32;20536;-68
2024/03/17 10:49:31;;;;;;;1.60;1.23;;;10.10;99.90;;;;;;4454338;32;20085;-68
2024/03/17 10:51:59;;;;;;;0.30;0.30;;;10.40;99.90;;;;;;4454193;32;20073;-67
2024/03/17 10:54:28;;;;;;;0.40;0.40;;;10.50;99.90;;;;;;4453935;32;20080;-67
2024/03/17 10:56:56;;;;;;;1.90;0.82;;;10.90;99.90;;;;;;4452571;32;20088;-66
2024/03/17 10:59:31;;;;;;;0.68;0.60;;;11.20;99.90;;;;;;4452180;32;20076;-67
2024/03/17 11:01:57;;;;;;;0.40;0.40;;;11.30;99.90;;;;;;4454959;32;20076;-67
2024/03/17 11:04:23;;;;;;;1.60;0.85;;;11.20;99.90;;;;;;4455304;32;20069;-67
2024/03/17 11:06:49;;;;;;;1.65;0.88;;;11.10;99.90;;;;;;4453220;32;20121;-67
2024/03/17 11:09:16;;;;;;;0.30;0.30;;;11.00;99.90;;;;;;4456516;32;20153;-64
2024/03/17 11:11:43;;;;;;;0.82;0.82;;;10.90;99.90;;;;;;4454384;32;20072;-66
2024/03/17 11:14:19;;;;;;;22.27;1.30;;;10.90;99.90;;;;;;4454658;32;20097;-63
2024/03/17 11:16:45;;;;;;;0.85;0.75;;;10.80;99.90;;;;;;4447470;32;20076;-63
2024/03/17 11:19:16;;;;;;;10.88;0.50;;;10.80;99.90;;;;;;4456644;32;20076;-67
2024/03/17 11:21:42;;;;;;;;;;;11.20;99.90;;;;;;4454297;32;20085;-67
2024/03/17 11:24:19;;;;;;;0.30;0.30;;;11.10;99.90;;;;;;4453265;32;20302;-69
2024/03/17 11:26:45;;;;;;;0.40;0.40;;;11.40;99.90;;;;;;4452528;32;20454;-67
2024/03/17 11:29:28;;;;;;;1.33;1.23;;;11.80;99.90;;;;;;4453694;32;20057;-64
2024/03/17 11:31:55;;;;;;;0.90;0.50;;;11.70;99.90;;;;;;4446549;32;20438;-65
2024/03/17 11:34:41;;;;;;;1.20;0.50;;;12.10;99.90;;;;;;4452850;32;20053;-65
2024/03/17 11:37:08;;;;;;;0.45;0.43;;;12.30;99.90;;;;;;4454041;32;20064;-65
2024/03/17 11:39:55;;;;;;;0.75;0.52;;;12.10;99.90;;;;;;4453446;32;20500;-65
2024/03/17 11:42:22;;;;;;;0.65;0.65;;;11.90;99.90;;;;;;4446544;32;20100;-64
2024/03/17 11:45:00;;;;;;;1.02;0.77;;;11.40;99.90;;;;;;4445064;32;20080;-65
2024/03/17 11:47:34;;;;;;;0.40;0.40;;;11.20;99.90;;;;;;4451929;32;20118;-65
2024/03/17 11:50:04;;;;;;;0.40;0.40;;;12.00;99.90;;;;;;4454734;32;20076;-65
2024/03/17 11:52:30;;;;;;;0.30;0.30;;;12.40;99.90;;;;;;4451851;32;84399;-65
2024/03/17 11:54:56;;;;;;;0.43;0.43;;;12.40;99.90;;;;;;4444275;32;20149;-65
2024/03/17 11:57:24;;;;;;;0.30;0.30;;;11.80;99.90;;;;;;4454415;32;20068;-65
2024/03/17 11:59:50;;;;;;;0.30;0.30;;;11.30;99.90;;;;;;4444418;32;20533;-65
2024/03/17 12:02:20;;;;;;;0.80;0.80;;;11.20;99.90;;;;;;4453730;32;20417;-65
2024/03/17 12:04:46;;;;;;;2.72;1.15;;;11.20;99.90;;;;;;4447448;32;20123;-65
2024/03/17 12:07:13;;;;;;;0.20;0.20;;;11.20;99.90;;;;;;4454609;32;20249;-65
2024/03/17 12:09:41;;;;;;;0.30;0.30;;;11.20;99.90;;;;;;4452715;32;20072;-65
2024/03/17 12:12:15;;;;;;;0.37;0.37;;;11.30;99.90;;;;;;4453569;32;20065;-64
2024/03/17 12:14:41;;;;;;;0.82;0.82;;;11.00;99.90;;;;;;4454203;32;20528;-65
2024/03/17 12:17:09;;;;;;;4.47;0.50;;;11.10;99.90;;;;;;4453322;32;20060;-65
2024/03/17 12:19:36;;;;;;;0.40;0.40;;;10.80;99.90;;;;;;4452955;32;20060;-65
2024/03/17 12:22:02;;;;;;;0.50;0.50;;;10.90;99.90;;;;;;4452014;32;20080;-65
2024/03/17 12:24:31;;;;;;;0.35;0.35;;;10.90;99.90;;;;;;4453006;32;20077;-65
2024/03/17 12:26:59;;;;;;;0.30;0.30;;;10.80;99.90;;;;;;4451929;32;20077;-64
2024/03/17 12:29:37;;;;;;;0.50;0.50;;;10.80;99.90;;;;;;4451206;32;20457;-65
2024/03/17 12:32:07;;;;;;;0.37;0.30;;;10.80;99.90;;;;;;4452429;32;20406;-65
2024/03/17 12:34:34;;;;;;;0.30;0.30;;;10.70;99.90;;;;;;4445484;32;20426;-65
2024/03/17 12:37:01;;;;;;;0.30;0.30;;;11.20;99.90;;;;;;4452558;32;20088;-66
2024/03/17 12:39:29;;;;;;;0.37;0.37;;;12.30;99.90;;;;;;4453206;32;20469;-65
2024/03/17 12:42:04;;;;;;;0.47;0.47;;;13.40;99.90;;;;;;4451530;32;20429;-65
2024/03/17 12:44:31;;;;;;;0.40;0.40;;;13.50;99.40;;;;;;4452261;32;20084;-65
2024/03/17 12:47:00;;;;;;;0.85;0.85;;;13.00;99.90;;;;;;4443605;32;20596;-65
2024/03/17 12:49:26;;;;;;;0.73;0.73;;;12.50;99.90;;;;;;4443993;32;20068;-65
2024/03/17 12:51:52;;;;;;;0.30;0.30;;;12.30;99.90;;;;;;4450628;32;20092;-64
2024/03/17 12:54:22;;;;;;;0.30;0.30;;;12.60;99.90;;;;;;4438959;32;20081;-65
2024/03/17 13:00:42;;;;;;;0.25;0.25;;;14.20;98.20;;;;;;4444136;32;20149;-65